Details From YBHM - Hamilton I.
To YBCG - Gold Coast International
Flight Number -
Tags generated
Created
Modified
Stats Distance 537 nm / 994 km
Max Altitude 35,000 ft / 10,668 m
Waypoints 6
Social Downloads 2
Likes 0
Share VATSIM

Download

Looking for another format? Having issues loading an existing format? Contact us
Advertisement - Login to hide

Notes

Basic altitude profile: - Ascent Rate: 2500ft/min - Ascent Speed: 250kts - Cruise Altitude: 35000ft - Cruise Speed: 420kts - Descent Rate: 1500ft/min - Descent Speed: 250kts

Route

YBHM POONA Y61 TNG Y177 SMOKA YBCG

ID Type Via Altitude Latitude Longitude Leg Dist Tot Dist Heading (true) Name
O YBHM APT - 0 ft / 0 m -20.35748˚ 148.95164˚ - 0 nm - Hamilton I.
POONA FIX - 25,300 ft / 7,711 m -21.49694˚ 149.28389˚ 70 nm 70 nm 165° / 165° -
TNG NDB Y61 (AWY-HI) 35,000 ft / 10,668 m -24.49417˚ 150.57000˚ 193 nm 264 nm 159° / 158° THANGOOL NDB-DME
EAGLE FIX Y177 (AWY-HI) 35,000 ft / 10,668 m -25.74444˚ 151.49167˚ 90 nm 354 nm 146° / 146° -
SMOKA FIX Y177 (AWY-HI) 19,300 ft / 5,883 m -26.87583˚ 152.63222˚ 91 nm 446 nm 138° / 138° -
O YBCG APT - 0 ft / 0 m -28.16604˚ 153.50616˚ 90 nm 536 nm 149° / 149° Gold Coast International

Altitude Profile

Advertisement - Login to hide

Weather


0- 5 10 15 20 25 30 35+ Temperature / ° C

Clouds and Precipitation
Forecast for 2017-12-13 00:00 UTC. Updated 44 minutes ago

Ground ~20,000 ft ~40,000 ft Winds

YBHM

Details ICAO YBHM (HTI)
Name Hamilton I.
Region Australia
Timezone Australia/Lindeman (UTC+10.0)
Stats Elevation 14 ft / 4 m (AMSL)
Location -20.357481° 148.951639°
Runways 1
Magnetic Variation 8.158° E

METAR

YBHM 122200Z AUTO 13022KT 9999 // BKN034 BKN039 26/20 Q1012

Decode

TAF

TAF YBHM 121106Z 1212/1224 13020KT 9999 -SHRA SCT025

Decode

Departure Runways

ID Width Length Bearing (true) Bearing (mag) Surface Threshold Offset Overrun Length
14 148 ft / 45 m 5,792 ft / 1,765 m 143.04° 134.88° Asphalt 0 ft / 0 m 0 ft / 0 m
32 148 ft / 45 m 5,792 ft / 1,765 m 323.03° 314.87° Asphalt 0 ft / 0 m 0 ft / 0 m

YBCG

Details ICAO YBCG (OOL)
Name Gold Coast International
Region Australia
Timezone Australia/Brisbane (UTC+10.0)
Stats Elevation 20 ft / 6 m (AMSL)
Location -28.166035° 153.506155°
Runways 2
Magnetic Variation 11.330° E

METAR

YBCG 122200Z AUTO 17011KT 9999 // NCD 25/18 Q1016

Decode

TAF

TAF TAF YBCG 121733Z 1218/1318 20007KT 9999 FEW020 FM122300 12012KT 9999 FEW030 FM130800 09007KT 9999 FEW025 FM131300 23005KT 9999 SCT030

Decode

Destination Runways

ID Width Length Bearing (true) Bearing (mag) Surface Threshold Offset Overrun Length
14 148 ft / 45 m 7,687 ft / 2,343 m 150.04° 138.71° Asphalt 0 ft / 0 m 394 ft / 120 m
17 59 ft / 18 m 1,911 ft / 582 m 184.00° 172.67° Asphalt 0 ft / 0 m 0 ft / 0 m
32 148 ft / 45 m 7,687 ft / 2,343 m 330.04° 318.71° Asphalt 0 ft / 0 m 394 ft / 120 m
35 59 ft / 18 m 1,911 ft / 582 m 4.00° 352.67° Asphalt 0 ft / 0 m 0 ft / 0 m

Popular Alternatives